Furniss, Pennsylvania
Current Conditions -  °F | °C
As of 5:55 PM on Tuesday 21 Oct 2014 (Local Time) from KMQS Reporting Station
Few Clouds Few Clouds  
Wind Chill: 59°   Ceiling: Unl
Heat Index: 59°   Visibility: 10mi
Dew Point: 48°   Wind: 3mph
Humidity: 67%   Direction: 330°NNW
Pressure: 29.84"   Gusts: NA
Location:  39.7675°N, 76.1818°W
Report Text: KMQS 212155Z AUTO 33003KT 10SM FEW120 15/09 A2984 RMK AO2
Loading
Personal Weather Stations






























Interactive Weather Map
Tropical Storm Tracking
New forecast layout! Learn more

10-Day Weather Forecast

Advertisements
Track Severe Weather on mobile